Time;durP1;ratioP1;P1;durP2;ratioP2;P2;SDS_P1;SDS_P2;PMS_P1;PMS_P2;Temp;Humidity;BMP_temperature;BMP_pressure;BME280_temperature;BME280_humidity;BME280_pressure;Samples;Min_cycle;Max_cycle;Signal;HPM_P1;HPM_P2
2021/09/01 00:00:44;;;;;;;13.30;4.47;;;18.30;99.90;;;;;;5052944;28;20025;-76
2021/09/01 00:03:09;;;;;;;9.98;3.88;;;18.30;99.90;;;;;;5066828;28;20078;-80
2021/09/01 00:05:35;;;;;;;11.93;4.43;;;18.30;99.90;;;;;;5068871;28;20020;-79
2021/09/01 00:08:01;;;;;;;13.93;4.35;;;18.30;99.90;;;;;;5070109;28;20024;-79
2021/09/01 00:10:27;;;;;;;11.90;3.95;;;18.40;99.90;;;;;;5064189;28;20119;-76
2021/09/01 00:12:53;;;;;;;8.68;3.25;;;18.40;99.90;;;;;;5069099;28;20024;-81
2021/09/01 00:15:18;;;;;;;12.00;4.55;;;18.40;99.90;;;;;;5065762;28;20130;-81
2021/09/01 00:17:44;;;;;;;16.27;3.97;;;18.50;99.90;;;;;;5061798;28;20025;-76
2021/09/01 00:20:11;;;;;;;11.15;4.40;;;18.40;99.90;;;;;;5069498;28;20100;-81
2021/09/01 00:22:37;;;;;;;13.50;4.57;;;18.30;99.90;;;;;;5065239;28;20039;-73
2021/09/01 00:25:04;;;;;;;12.38;4.25;;;18.40;99.90;;;;;;5062682;28;20020;-74
2021/09/01 00:27:29;;;;;;;8.20;3.42;;;18.40;99.90;;;;;;5071335;28;20025;-74
2021/09/01 00:29:55;;;;;;;15.65;4.03;;;18.40;99.90;;;;;;5061906;28;20025;-75
2021/09/01 00:32:21;;;;;;;11.02;3.90;;;18.50;99.90;;;;;;5064097;28;20029;-74
2021/09/01 00:34:46;;;;;;;12.40;4.18;;;18.30;99.90;;;;;;5062565;28;20062;-77
2021/09/01 00:37:12;;;;;;;14.05;4.03;;;18.20;99.90;;;;;;5069239;28;20090;-73
2021/09/01 00:39:38;;;;;;;10.13;3.90;;;18.20;99.90;;;;;;5069044;28;20016;-73
2021/09/01 00:42:08;;;;;;;16.15;4.68;;;18.20;99.90;;;;;;5060690;28;20033;-75
2021/09/01 00:44:35;;;;;;;14.45;4.30;;;18.20;99.90;;;;;;5064889;28;20582;-77
2021/09/01 00:47:01;;;;;;;12.75;4.25;;;18.20;99.90;;;;;;5060112;28;20044;-77
2021/09/01 00:49:27;;;;;;;13.27;4.25;;;18.30;99.90;;;;;;5064982;28;20056;-78
2021/09/01 00:51:54;;;;;;;13.85;4.60;;;18.30;99.90;;;;;;5068837;28;20495;-80
2021/09/01 00:54:25;;;;;;;13.65;4.00;;;18.30;99.90;;;;;;5066635;28;20035;-74
2021/09/01 00:56:54;;;;;;;13.60;4.15;;;18.30;99.90;;;;;;5071728;28;20428;-78
2021/09/01 00:59:22;;;;;;;15.32;5.03;;;18.30;99.90;;;;;;5057761;28;20029;-75
2021/09/01 01:01:48;;;;;;;11.55;4.35;;;18.30;99.90;;;;;;5049792;28;20032;-79
2021/09/01 01:04:14;;;;;;;12.30;4.30;;;18.30;99.90;;;;;;5070844;28;20028;-80
2021/09/01 01:06:40;;;;;;;12.93;4.30;;;18.40;99.90;;;;;;5066927;28;20495;-77
2021/09/01 01:09:06;;;;;;;16.45;4.43;;;18.40;99.90;;;;;;5071296;28;20096;-79
2021/09/01 01:11:32;;;;;;;15.18;4.20;;;18.30;99.90;;;;;;5063777;28;20025;-80
2021/09/01 01:13:58;;;;;;;14.05;3.92;;;18.40;99.90;;;;;;5073268;28;20444;-79
2021/09/01 01:16:25;;;;;;;14.23;4.00;;;18.40;99.90;;;;;;5072262;28;20029;-80
2021/09/01 01:18:52;;;;;;;12.57;4.60;;;18.50;99.90;;;;;;5069887;28;20055;-78
2021/09/01 01:21:24;;;;;;;16.20;4.75;;;18.50;99.90;;;;;;5070064;28;20036;-80
2021/09/01 01:23:59;;;;;;;;;;;18.50;99.90;;;;;;5086230;28;20033;-80
2021/09/01 01:26:29;;;;;;;12.73;4.47;;;18.50;99.90;;;;;;5039622;28;19915;-78
2021/09/01 01:28:58;;;;;;;16.10;4.63;;;18.50;99.90;;;;;;5072234;28;20017;-80
2021/09/01 01:31:24;;;;;;;18.02;5.05;;;18.60;99.90;;;;;;5072083;28;20052;-80
2021/09/01 01:33:51;;;;;;;11.95;4.72;;;18.50;99.90;;;;;;5048634;28;20027;-80
2021/09/01 01:36:16;;;;;;;15.98;4.85;;;18.50;99.90;;;;;;5062344;28;20075;-79
2021/09/01 01:38:42;;;;;;;14.25;4.40;;;18.60;99.90;;;;;;5070574;28;20021;-77
2021/09/01 01:41:09;;;;;;;12.52;4.40;;;18.50;99.90;;;;;;5070081;28;20030;-81
2021/09/01 01:43:38;;;;;;;18.83;5.22;;;18.50;99.90;;;;;;5071282;28;20437;-78
2021/09/01 01:46:06;;;;;;;12.13;4.70;;;18.60;99.90;;;;;;5067547;28;20354;-80
2021/09/01 01:48:33;;;;;;;15.77;4.85;;;18.60;99.90;;;;;;5054733;28;20679;-81
2021/09/01 01:51:00;;;;;;;12.10;4.13;;;18.50;99.90;;;;;;5050280;28;20020;-80
2021/09/01 01:53:26;;;;;;;14.30;4.40;;;18.50;99.90;;;;;;5061440;28;20029;-81
2021/09/01 01:55:51;;;;;;;14.35;4.60;;;18.50;99.90;;;;;;5072918;28;20024;-79
2021/09/01 01:58:17;;;;;;;10.30;4.75;;;18.60;99.90;;;;;;5045071;28;20430;-80
2021/09/01 02:00:43;;;;;;;12.52;4.07;;;18.50;99.90;;;;;;5064854;28;20017;-81
2021/09/01 02:03:09;;;;;;;16.33;4.38;;;18.50;99.90;;;;;;5065897;28;20405;-81
2021/09/01 02:05:34;;;;;;;16.70;4.55;;;18.50;99.90;;;;;;5064570;28;20069;-81
2021/09/01 02:08:00;;;;;;;19.60;4.63;;;18.50;99.90;;;;;;5062715;28;20560;-81
2021/09/01 02:10:26;;;;;;;14.93;4.97;;;18.50;99.90;;;;;;5071185;28;20373;-81
2021/09/01 02:12:52;;;;;;;15.18;4.55;;;18.50;99.90;;;;;;5070756;28;20021;-81
2021/09/01 02:15:17;;;;;;;20.05;4.85;;;18.40;99.90;;;;;;5069885;28;20016;-81
2021/09/01 02:17:43;;;;;;;11.23;4.40;;;18.30;99.90;;;;;;5072009;28;20023;-81
2021/09/01 02:20:11;;;;;;;13.82;4.80;;;18.30;99.90;;;;;;5070964;28;20400;-79
2021/09/01 02:22:37;;;;;;;11.85;4.53;;;18.40;99.90;;;;;;5072846;28;20032;-81
2021/09/01 02:25:04;;;;;;;13.30;4.85;;;18.40;99.90;;;;;;5068052;28;20040;-81
2021/09/01 02:27:30;;;;;;;12.48;4.68;;;18.40;99.90;;;;;;5065003;28;20028;-81
2021/09/01 02:29:56;;;;;;;23.67;5.50;;;18.50;99.90;;;;;;5063391;28;20751;-76
2021/09/01 02:32:22;;;;;;;14.15;5.13;;;18.50;99.90;;;;;;5063689;28;20268;-81
2021/09/01 02:34:48;;;;;;;10.32;4.90;;;18.40;99.90;;;;;;5071144;28;20453;-81
2021/09/01 02:37:14;;;;;;;12.77;4.97;;;18.40;99.90;;;;;;5063683;28;20074;-80
2021/09/01 02:39:40;;;;;;;15.70;5.05;;;18.40;99.90;;;;;;5068423;28;20070;-81
2021/09/01 02:42:05;;;;;;;20.02;5.28;;;18.50;99.90;;;;;;5065619;28;20384;-81
2021/09/01 02:44:31;;;;;;;14.60;4.50;;;18.40;99.90;;;;;;5069784;28;20039;-80
2021/09/01 02:46:57;;;;;;;13.52;5.10;;;18.40;99.90;;;;;;5068592;28;20042;-80
2021/09/01 02:49:22;;;;;;;16.65;5.07;;;18.40;99.90;;;;;;5070332;28;20020;-81
2021/09/01 02:51:48;;;;;;;15.48;5.18;;;18.40;99.90;;;;;;5071973;28;20024;-82
2021/09/01 02:54:14;;;;;;;20.05;5.38;;;18.40;99.90;;;;;;5071262;28;20040;-81
2021/09/01 02:56:39;;;;;;;17.00;5.53;;;18.30;99.90;;;;;;5074245;28;20092;-81
2021/09/01 02:59:05;;;;;;;13.38;4.85;;;18.40;99.90;;;;;;5069302;28;20401;-81
2021/09/01 03:01:31;;;;;;;20.45;5.45;;;18.40;99.90;;;;;;5072513;28;20037;-79
2021/09/01 03:03:56;;;;;;;19.08;5.50;;;18.40;99.90;;;;;;5070953;28;20107;-79
2021/09/01 03:06:22;;;;;;;14.68;5.22;;;18.40;99.90;;;;;;5072278;28;20524;-81
2021/09/01 03:08:47;;;;;;;14.55;5.47;;;18.40;99.90;;;;;;5054875;28;20469;-80
2021/09/01 03:11:13;;;;;;;13.23;4.90;;;18.40;99.90;;;;;;5063177;28;20036;-80
2021/09/01 03:13:39;;;;;;;10.70;4.38;;;18.30;99.90;;;;;;5065272;28;20099;-79
2021/09/01 03:16:04;;;;;;;17.73;5.13;;;18.40;99.90;;;;;;5065799;28;20372;-80
2021/09/01 03:18:30;;;;;;;16.42;5.05;;;18.40;99.90;;;;;;5066053;28;20032;-78
2021/09/01 03:20:55;;;;;;;18.63;5.38;;;18.40;99.90;;;;;;5070470;28;20020;-79
2021/09/01 03:23:21;;;;;;;15.32;6.18;;;18.40;99.90;;;;;;5069956;28;20472;-80
2021/09/01 03:25:47;;;;;;;14.10;4.88;;;18.30;99.90;;;;;;5068908;28;20078;-81
2021/09/01 03:28:12;;;;;;;16.42;4.78;;;18.30;99.90;;;;;;5071887;28;20056;-77
2021/09/01 03:30:38;;;;;;;14.10;5.38;;;18.30;99.90;;;;;;5068710;28;20100;-81
2021/09/01 03:33:04;;;;;;;15.15;5.10;;;18.30;99.90;;;;;;5071709;28;20024;-80
2021/09/01 03:35:30;;;;;;;17.20;5.53;;;18.30;99.90;;;;;;5071578;28;20023;-81
2021/09/01 03:37:55;;;;;;;15.57;5.13;;;18.30;99.90;;;;;;5071459;28;20047;-80
2021/09/01 03:40:22;;;;;;;15.63;5.35;;;18.30;99.90;;;;;;5069144;28;20016;-80
2021/09/01 03:42:48;;;;;;;18.98;6.15;;;18.30;99.90;;;;;;5069004;28;20493;-81
2021/09/01 03:45:14;;;;;;;15.80;5.03;;;18.20;99.90;;;;;;5071186;28;20043;-78
2021/09/01 03:47:40;;;;;;;20.42;5.75;;;18.30;99.90;;;;;;5071128;28;20029;-81
2021/09/01 03:50:08;;;;;;;16.58;5.28;;;18.30;99.90;;;;;;5070521;28;20037;-80
2021/09/01 03:52:33;;;;;;;17.75;5.93;;;18.30;99.90;;;;;;5071429;28;20108;-80
2021/09/01 03:55:01;;;;;;;10.27;5.25;;;18.30;99.90;;;;;;5070527;28;20024;-80
2021/09/01 03:57:27;;;;;;;17.63;5.35;;;18.10;99.90;;;;;;5071444;28;20032;-80
2021/09/01 03:59:52;;;;;;;15.68;5.65;;;18.10;99.90;;;;;;5071350;28;20021;-80
2021/09/01 04:02:18;;;;;;;9.75;5.25;;;18.20;99.90;;;;;;5052692;28;20039;-81
2021/09/01 04:04:44;;;;;;;11.45;4.82;;;18.20;99.90;;;;;;5052721;28;20154;-76
2021/09/01 04:07:09;;;;;;;14.25;5.07;;;18.20;99.90;;;;;;5069544;28;20032;-80
2021/09/01 04:09:35;;;;;;;20.60;5.95;;;18.20;99.90;;;;;;5070514;28;20340;-79
2021/09/01 04:12:01;;;;;;;16.98;5.72;;;18.30;99.90;;;;;;5068499;28;20963;-80
2021/09/01 04:14:26;;;;;;;15.90;5.78;;;18.30;99.90;;;;;;5073170;28;20031;-79
2021/09/01 04:16:52;;;;;;;14.52;5.55;;;18.20;99.90;;;;;;5067578;28;20086;-79
2021/09/01 04:19:17;;;;;;;15.35;5.72;;;18.20;99.90;;;;;;5070867;28;20012;-75
2021/09/01 04:21:43;;;;;;;18.45;5.32;;;18.20;99.90;;;;;;5069949;28;20086;-80
2021/09/01 04:24:09;;;;;;;14.38;5.47;;;18.20;99.90;;;;;;5070791;28;20028;-80
2021/09/01 04:26:34;;;;;;;16.13;6.00;;;18.10;99.90;;;;;;5068954;28;20107;-79
2021/09/01 04:29:00;;;;;;;13.40;5.72;;;18.10;99.90;;;;;;5071329;28;20017;-77
2021/09/01 04:31:25;;;;;;;13.73;5.85;;;18.10;99.90;;;;;;5070623;28;20028;-80
2021/09/01 04:33:51;;;;;;;15.32;5.53;;;18.20;99.90;;;;;;5060963;28;20026;-76
2021/09/01 04:36:18;;;;;;;18.30;4.93;;;18.20;99.90;;;;;;5064252;28;20470;-79
2021/09/01 04:38:44;;;;;;;13.80;6.82;;;18.20;99.90;;;;;;5053003;28;20023;-76
2021/09/01 04:41:10;;;;;;;18.75;6.30;;;18.30;99.90;;;;;;5070412;28;20156;-75
2021/09/01 04:43:35;;;;;;;10.52;5.43;;;18.30;99.90;;;;;;5072914;28;20481;-77
2021/09/01 04:46:01;;;;;;;23.50;6.45;;;18.30;99.90;;;;;;5056551;28;20047;-80
2021/09/01 04:48:26;;;;;;;17.23;6.00;;;18.30;99.90;;;;;;5070775;28;20089;-80
2021/09/01 04:50:53;;;;;;;17.98;6.35;;;18.30;99.90;;;;;;5072209;28;20033;-80
2021/09/01 04:53:19;;;;;;;14.57;5.40;;;18.20;99.90;;;;;;5073710;28;20036;-80
2021/09/01 04:55:45;;;;;;;16.55;6.20;;;18.30;99.90;;;;;;5072517;28;20385;-80
2021/09/01 04:58:11;;;;;;;16.05;7.00;;;18.30;99.90;;;;;;5071033;28;20534;-81
2021/09/01 05:00:37;;;;;;;16.00;6.50;;;18.20;99.90;;;;;;5049527;28;20351;-80
2021/09/01 05:03:04;;;;;;;16.05;5.68;;;18.20;99.90;;;;;;5073029;28;20094;-81
2021/09/01 05:05:30;;;;;;;15.73;6.25;;;18.30;99.90;;;;;;5075190;28;20052;-81
2021/09/01 05:07:55;;;;;;;19.45;7.28;;;18.20;99.90;;;;;;5074735;28;20029;-80
2021/09/01 05:10:21;;;;;;;13.48;6.10;;;18.20;99.90;;;;;;5065713;28;20028;-78
2021/09/01 05:12:50;;;;;;;18.25;5.93;;;18.20;99.90;;;;;;5068455;28;20036;-80
2021/09/01 05:15:19;;;;;;;13.57;6.57;;;18.20;99.90;;;;;;5074048;28;20020;-80
2021/09/01 05:17:45;;;;;;;14.82;7.22;;;18.20;99.90;;;;;;5078759;28;20032;-80
2021/09/01 05:20:11;;;;;;;14.80;6.93;;;18.10;99.90;;;;;;5076879;28;20021;-80
2021/09/01 05:22:38;;;;;;;17.08;6.72;;;18.10;99.90;;;;;;5066513;28;20469;-76
2021/09/01 05:25:16;;;;;;;14.25;6.22;;;18.20;99.90;;;;;;5066113;28;20130;-80
2021/09/01 05:27:44;;;;;;;21.50;6.57;;;18.20;99.90;;;;;;5074032;28;20025;-81
2021/09/01 05:30:16;;;;;;;16.63;6.65;;;18.20;99.90;;;;;;5066634;28;20068;-78
2021/09/01 05:32:43;;;;;;;22.38;6.85;;;18.30;99.90;;;;;;5075125;28;20027;-79
2021/09/01 05:35:11;;;;;;;17.55;6.45;;;18.20;99.90;;;;;;5072395;28;20016;-81
2021/09/01 05:37:37;;;;;;;19.38;6.10;;;18.20;99.90;;;;;;5078129;28;20020;-79
2021/09/01 05:40:05;;;;;;;20.05;6.68;;;18.20;99.90;;;;;;5068332;28;20032;-78
2021/09/01 05:42:32;;;;;;;17.10;6.45;;;18.20;99.90;;;;;;5075740;28;20905;-78
2021/09/01 05:44:59;;;;;;;16.45;6.97;;;18.30;99.90;;;;;;5071200;28;20058;-79
2021/09/01 05:47:25;;;;;;;24.23;7.53;;;18.20;99.90;;;;;;5073452;28;20017;-79
2021/09/01 05:49:52;;;;;;;18.40;6.97;;;18.20;99.90;;;;;;5069428;28;20100;-80
2021/09/01 05:52:19;;;;;;;21.33;6.57;;;18.20;99.90;;;;;;5060531;28;20074;-78
2021/09/01 05:54:47;;;;;;;16.98;6.88;;;18.30;99.90;;;;;;5064180;28;20044;-80
2021/09/01 05:57:15;;;;;;;22.92;7.25;;;18.30;99.90;;;;;;5071030;28;20020;-80
2021/09/01 05:59:55;;;;;;;17.35;6.97;;;18.30;99.90;;;;;;5066973;28;20040;-79
2021/09/01 06:02:25;;;;;;;16.15;6.70;;;18.30;99.90;;;;;;5071876;28;20071;-78
2021/09/01 06:04:54;;;;;;;15.07;6.32;;;18.20;99.90;;;;;;5053713;28;20021;-80
2021/09/01 06:07:22;;;;;;;18.55;6.78;;;18.30;99.90;;;;;;5073058;28;20406;-81
2021/09/01 06:09:48;;;;;;;18.42;6.35;;;18.40;99.90;;;;;;5067045;28;20422;-80
2021/09/01 06:12:19;;;;;;;17.35;6.13;;;18.40;99.90;;;;;;5070351;28;20025;-80
2021/09/01 06:14:45;;;;;;;17.13;6.43;;;18.30;99.90;;;;;;5069397;28;20025;-78
2021/09/01 06:17:11;;;;;;;19.77;7.50;;;18.40;99.90;;;;;;5063603;28;20081;-78
2021/09/01 06:19:38;;;;;;;23.75;8.38;;;18.40;99.90;;;;;;5069249;28;20456;-80
2021/09/01 06:22:05;;;;;;;17.83;8.02;;;18.40;99.90;;;;;;5070921;28;20060;-79
2021/09/01 06:24:34;;;;;;;16.73;7.80;;;18.40;99.90;;;;;;5074281;28;20028;-80
2021/09/01 06:27:01;;;;;;;18.05;7.00;;;18.40;99.90;;;;;;5072807;28;20029;-78
2021/09/01 06:29:27;;;;;;;19.83;7.63;;;18.40;99.90;;;;;;5069752;28;20025;-80
2021/09/01 06:31:54;;;;;;;18.65;7.97;;;18.50;99.90;;;;;;5065261;28;20036;-77
2021/09/01 06:34:19;;;;;;;25.40;7.97;;;18.40;99.90;;;;;;5071300;28;20020;-79
2021/09/01 06:36:45;;;;;;;16.80;7.85;;;18.40;99.90;;;;;;5071849;28;20032;-76
2021/09/01 06:39:11;;;;;;;18.92;8.48;;;18.40;99.90;;;;;;5075077;28;20024;-79
2021/09/01 06:41:37;;;;;;;20.83;8.68;;;18.50;99.90;;;;;;5073675;28;20039;-80
2021/09/01 06:44:03;;;;;;;19.52;9.05;;;18.50;99.90;;;;;;5073455;28;20099;-79
2021/09/01 06:46:29;;;;;;;17.55;8.02;;;18.50;99.90;;;;;;5071430;28;20493;-79
2021/09/01 06:48:54;;;;;;;28.33;9.45;;;18.50;99.90;;;;;;5073615;28;20488;-78
2021/09/01 06:51:20;;;;;;;18.58;9.00;;;18.50;99.90;;;;;;5073298;28;20054;-78
2021/09/01 06:53:46;;;;;;;23.27;8.55;;;18.50;99.90;;;;;;5073462;28;20041;-79
2021/09/01 06:56:11;;;;;;;17.58;9.05;;;18.60;99.90;;;;;;5073879;28;20020;-78
2021/09/01 06:58:37;;;;;;;27.50;9.18;;;18.60;99.90;;;;;;5026330;28;20032;-80
2021/09/01 07:01:03;;;;;;;19.60;9.43;;;18.60;99.90;;;;;;5069976;28;20033;-78
2021/09/01 07:03:29;;;;;;;20.15;9.20;;;18.60;99.90;;;;;;5072545;28;20489;-75
2021/09/01 07:05:55;;;;;;;27.00;9.20;;;18.60;99.90;;;;;;5071822;28;20063;-77
2021/09/01 07:08:23;;;;;;;24.15;9.73;;;18.60;99.90;;;;;;5073278;28;20366;-81
2021/09/01 07:10:50;;;;;;;22.35;8.75;;;18.70;99.90;;;;;;5071099;28;20031;-79
2021/09/01 07:13:17;;;;;;;21.70;9.25;;;18.70;99.90;;;;;;5054284;28;20066;-80
2021/09/01 07:15:43;;;;;;;17.20;7.55;;;18.60;99.90;;;;;;5072199;28;20517;-79
2021/09/01 07:18:10;;;;;;;23.15;8.52;;;18.60;99.90;;;;;;5072925;28;20095;-80
2021/09/01 07:20:36;;;;;;;25.65;9.05;;;18.50;99.90;;;;;;5072220;28;20039;-75
2021/09/01 07:23:02;;;;;;;24.67;9.30;;;18.50;99.90;;;;;;5057075;28;20507;-81
2021/09/01 07:25:28;;;;;;;23.30;9.38;;;18.60;99.90;;;;;;5069634;28;20108;-80
2021/09/01 07:27:54;;;;;;;17.05;8.90;;;18.60;99.90;;;;;;5071476;28;20060;-82
2021/09/01 07:30:19;;;;;;;26.92;8.57;;;18.70;99.90;;;;;;5072341;28;20073;-80
2021/09/01 07:32:45;;;;;;;19.98;8.27;;;18.70;99.90;;;;;;5070068;28;20032;-80
2021/09/01 07:35:11;;;;;;;17.98;7.93;;;18.70;99.90;;;;;;5072941;28;20024;-80
2021/09/01 07:37:46;;;;;;;19.63;7.45;;;18.70;99.90;;;;;;5077658;28;20025;-79
2021/09/01 07:40:13;;;;;;;17.23;7.70;;;18.70;99.90;;;;;;5071486;28;20473;-79
2021/09/01 07:42:40;;;;;;;16.15;7.20;;;18.80;99.90;;;;;;5071837;28;20028;-80
2021/09/01 07:45:06;;;;;;;16.60;7.82;;;18.80;99.90;;;;;;5070604;28;20024;-80
2021/09/01 07:47:32;;;;;;;19.08;7.60;;;18.70;99.90;;;;;;5068406;28;20025;-79
2021/09/01 07:49:57;;;;;;;21.52;7.72;;;18.60;99.90;;;;;;5062683;28;20025;-81
2021/09/01 07:52:23;;;;;;;15.68;6.72;;;18.60;99.90;;;;;;5068112;28;20041;-79
2021/09/01 07:54:49;;;;;;;22.40;7.90;;;18.60;99.90;;;;;;5044658;28;20082;-78
2021/09/01 07:57:14;;;;;;;23.20;8.38;;;18.60;99.90;;;;;;5067549;28;20473;-80
2021/09/01 07:59:40;;;;;;;20.17;7.88;;;18.70;99.90;;;;;;5068615;28;20066;-79
2021/09/01 08:02:06;;;;;;;22.17;8.20;;;18.70;99.90;;;;;;5069385;28;20378;-79
2021/09/01 08:04:32;;;;;;;22.38;8.25;;;18.80;99.90;;;;;;5045257;28;20027;-80
2021/09/01 08:06:58;;;;;;;23.65;8.25;;;18.80;99.90;;;;;;5064926;28;20027;-80
2021/09/01 08:09:23;;;;;;;21.17;7.47;;;18.90;99.90;;;;;;5065524;28;20020;-78
2021/09/01 08:11:49;;;;;;;19.30;7.55;;;18.90;99.90;;;;;;5068615;28;20021;-76
2021/09/01 08:14:15;;;;;;;17.67;7.25;;;18.90;99.90;;;;;;5057269;28;20029;-80
2021/09/01 08:16:41;;;;;;;21.35;7.05;;;19.00;99.90;;;;;;5069725;28;20466;-78
2021/09/01 08:19:06;;;;;;;18.73;6.68;;;19.00;99.90;;;;;;5070341;28;20109;-78
2021/09/01 08:21:32;;;;;;;18.55;7.28;;;19.00;99.90;;;;;;5063437;28;21323;-78
2021/09/01 08:23:58;;;;;;;22.17;7.47;;;19.00;99.90;;;;;;5064860;28;20024;-82
2021/09/01 08:26:23;;;;;;;26.88;8.68;;;19.00;99.90;;;;;;5069194;28;20041;-79
2021/09/01 08:28:51;;;;;;;21.63;7.40;;;19.00;99.90;;;;;;5063951;28;20029;-79
2021/09/01 08:31:17;;;;;;;19.70;8.32;;;18.90;99.90;;;;;;5066866;28;20024;-77
2021/09/01 08:33:43;;;;;;;21.67;7.95;;;19.00;99.90;;;;;;5069172;28;20033;-79
2021/09/01 08:36:09;;;;;;;18.13;7.95;;;19.10;99.90;;;;;;5067147;28;20013;-76
2021/09/01 08:38:35;;;;;;;20.17;8.32;;;19.00;99.90;;;;;;5067900;28;20483;-72
2021/09/01 08:41:01;;;;;;;23.90;7.65;;;19.00;99.90;;;;;;5072845;28;20013;-79
2021/09/01 08:43:27;;;;;;;33.50;8.05;;;19.00;99.90;;;;;;5067796;28;20457;-77
2021/09/01 08:45:52;;;;;;;26.05;8.23;;;19.00;99.90;;;;;;5061522;28;20070;-74
2021/09/01 08:48:18;;;;;;;18.50;7.85;;;19.00;99.90;;;;;;5064582;28;20036;-80
2021/09/01 08:50:44;;;;;;;19.23;8.43;;;19.00;99.90;;;;;;5069260;28;20028;-74
2021/09/01 08:53:10;;;;;;;21.20;7.82;;;19.10;99.90;;;;;;5069437;28;20020;-79
2021/09/01 08:55:36;;;;;;;18.50;7.35;;;19.10;99.90;;;;;;5071118;28;20046;-79
2021/09/01 08:58:02;;;;;;;17.83;7.40;;;19.00;99.90;;;;;;5071148;28;20029;-76
2021/09/01 09:00:28;;;;;;;18.67;7.55;;;19.00;99.90;;;;;;5066850;28;20031;-79
2021/09/01 09:02:58;;;;;;;19.75;7.00;;;19.00;99.90;;;;;;5065539;28;20036;-80
2021/09/01 09:05:33;;;;;;;16.25;7.35;;;19.00;99.90;;;;;;5067195;28;20071;-74
2021/09/01 09:07:59;;;;;;;16.50;7.78;;;18.90;99.90;;;;;;5066047;28;20028;-80
2021/09/01 09:10:32;;;;;;;23.45;7.20;;;18.90;99.90;;;;;;5066761;28;20027;-73
2021/09/01 09:13:04;;;;;;;23.02;7.00;;;18.80;99.90;;;;;;5064457;28;20020;-76
2021/09/01 09:15:30;;;;;;;19.90;7.72;;;18.70;99.90;;;;;;5059028;28;20024;-76
2021/09/01 09:17:56;;;;;;;15.02;6.53;;;18.80;99.90;;;;;;5059809;28;20492;-80
2021/09/01 09:20:30;;;;;;;18.02;6.32;;;18.70;99.90;;;;;;5059431;28;20029;-80
2021/09/01 09:22:56;;;;;;;16.70;6.05;;;18.80;99.90;;;;;;5065978;28;20040;-81
2021/09/01 09:25:31;;;;;;;25.25;6.55;;;18.80;99.90;;;;;;5067217;28;20032;-82
2021/09/01 09:28:07;;;;;;;18.05;6.22;;;18.90;99.90;;;;;;5061904;28;20024;-81
2021/09/01 09:30:37;;;;;;;17.13;5.90;;;19.00;99.90;;;;;;5067110;28;20013;-83
2021/09/01 09:33:19;;;;;;;16.95;6.40;;;19.00;99.90;;;;;;5071954;28;20035;-82
2021/09/01 09:35:59;;;;;;;19.93;6.63;;;19.10;99.90;;;;;;5061733;28;20025;-83
2021/09/01 09:38:39;;;;;;;17.77;6.63;;;19.20;99.90;;;;;;5052487;28;20066;-82
2021/09/01 09:41:29;;;;;;;18.88;7.55;;;19.30;99.90;;;;;;5077575;28;20039;-82
2021/09/01 09:43:59;;;;;;;17.60;6.95;;;19.40;99.90;;;;;;5075491;28;20021;-81
2021/09/01 09:46:26;;;;;;;15.75;7.35;;;19.50;99.90;;;;;;5072715;28;20024;-82
2021/09/01 09:48:53;;;;;;;20.35;8.27;;;19.50;99.90;;;;;;5065905;28;20024;-83
2021/09/01 09:51:40;;;;;;;14.23;7.13;;;19.50;99.90;;;;;;5052300;28;20531;-82
2021/09/01 09:54:17;;;;;;;12.23;6.35;;;19.50;99.90;;;;;;5063140;28;20095;-82
2021/09/01 09:56:44;;;;;;;16.40;5.85;;;19.50;99.90;;;;;;5077559;28;20557;-83
2021/09/01 09:59:17;;;;;;;18.50;7.10;;;19.50;99.90;;;;;;5071279;28;20462;-83
2021/09/01 10:01:44;;;;;;;11.68;5.95;;;19.40;99.90;;;;;;5063688;28;20149;-82
2021/09/01 10:04:10;;;;;;;17.05;6.35;;;19.30;99.90;;;;;;5054307;28;20450;-82
2021/09/01 10:06:36;;;;;;;17.05;7.90;;;19.40;99.90;;;;;;5066544;28;20041;-83
2021/09/01 10:09:04;;;;;;;17.75;6.97;;;19.40;99.90;;;;;;5072542;28;20255;-80
2021/09/01 10:11:31;;;;;;;17.92;6.45;;;19.30;99.90;;;;;;5069319;28;20016;-80
2021/09/01 10:13:57;;;;;;;22.48;7.10;;;19.30;99.90;;;;;;5068540;28;20028;-78
2021/09/01 10:16:23;;;;;;;15.75;6.43;;;19.30;99.90;;;;;;5065551;28;20051;-78
2021/09/01 10:19:08;;;;;;;15.23;6.13;;;19.20;99.90;;;;;;5068444;28;20028;-82
2021/09/01 10:21:40;;;;;;;18.10;6.55;;;19.40;99.90;;;;;;5069517;28;20016;-83
2021/09/01 10:24:23;;;;;;;16.33;7.10;;;19.40;99.90;;;;;;5067956;28;20044;-82
2021/09/01 10:26:59;;;;;;;15.40;5.75;;;19.40;99.90;;;;;;5072556;28;20021;-82
2021/09/01 10:29:45;;;;;;;15.50;6.80;;;19.50;99.90;;;;;;5061031;28;20084;-82
2021/09/01 10:32:17;;;;;;;16.48;6.57;;;19.60;99.90;;;;;;5070523;28;20107;-78
2021/09/01 10:34:43;;;;;;;19.90;6.97;;;19.70;99.90;;;;;;5067473;28;20044;-78
2021/09/01 10:37:09;;;;;;;14.40;5.82;;;19.50;99.90;;;;;;5070099;28;20066;-83
2021/09/01 10:39:37;;;;;;;16.05;5.65;;;19.50;99.90;;;;;;5065106;28;20039;-83
2021/09/01 10:42:35;;;;;;;14.52;5.60;;;19.50;99.90;;;;;;5067137;28;20056;-83
2021/09/01 10:45:01;;;;;;;12.15;5.63;;;19.50;99.90;;;;;;5064308;28;20029;-81
2021/09/01 10:47:26;;;;;;;16.00;5.47;;;19.60;99.90;;;;;;5067900;28;20523;-80
2021/09/01 10:49:55;;;;;;;18.75;5.60;;;19.60;99.90;;;;;;5063566;28;20477;-84
2021/09/01 10:52:21;;;;;;;11.93;5.00;;;19.60;99.90;;;;;;5069658;28;20025;-83
2021/09/01 10:54:49;;;;;;;14.40;5.30;;;19.60;99.90;;;;;;5062421;28;20116;-83
2021/09/01 10:57:23;;;;;;;9.27;4.97;;;19.60;99.90;;;;;;5072093;28;20032;-82
2021/09/01 10:59:49;;;;;;;9.65;4.20;;;19.40;99.90;;;;;;5068774;28;20021;-83
2021/09/01 11:02:20;;;;;;;9.63;4.18;;;19.40;99.90;;;;;;5069817;28;20028;-82
2021/09/01 11:04:50;;;;;;;9.20;4.35;;;19.30;99.90;;;;;;5061133;28;20016;-82
2021/09/01 11:07:19;;;;;;;9.73;3.72;;;19.40;99.90;;;;;;5053763;28;20086;-82
2021/09/01 11:09:58;;;;;;;13.93;4.40;;;19.50;99.90;;;;;;5069030;28;20029;-84
2021/09/01 11:12:25;;;;;;;6.70;3.33;;;19.50;99.90;;;;;;5065869;28;20047;-83
2021/09/01 11:14:53;;;;;;;11.02;3.95;;;19.50;99.90;;;;;;5074025;28;20552;-78
2021/09/01 11:17:22;;;;;;;6.47;3.72;;;19.70;99.90;;;;;;5069982;28;20356;-82
2021/09/01 11:19:50;;;;;;;11.15;4.18;;;19.60;99.90;;;;;;5058989;28;20044;-82
2021/09/01 11:22:19;;;;;;;10.27;4.10;;;19.70;99.90;;;;;;5072830;28;20031;-82
2021/09/01 11:24:46;;;;;;;10.73;4.68;;;19.70;99.90;;;;;;5052796;28;20388;-82
2021/09/01 11:27:14;;;;;;;8.18;3.97;;;19.60;99.90;;;;;;5071999;28;20025;-82
2021/09/01 11:29:41;;;;;;;9.90;4.30;;;19.80;99.90;;;;;;5070669;28;20017;-82
2021/09/01 11:32:07;;;;;;;9.48;4.50;;;19.90;99.90;;;;;;5054348;28;20477;-79
2021/09/01 11:34:32;;;;;;;12.52;5.13;;;20.00;99.90;;;;;;5072808;28;20028;-82
2021/09/01 11:36:58;;;;;;;7.57;4.20;;;19.80;99.90;;;;;;5072409;28;20074;-82
2021/09/01 11:39:24;;;;;;;13.30;4.80;;;19.70;99.90;;;;;;5070233;28;20028;-81
2021/09/01 11:42:03;;;;;;;9.90;3.92;;;19.70;99.90;;;;;;5066447;28;20062;-84
2021/09/01 11:44:30;;;;;;;9.52;4.05;;;19.70;99.90;;;;;;5069918;28;20033;-82
2021/09/01 11:46:55;;;;;;;13.82;4.53;;;19.70;99.90;;;;;;5066349;28;20527;-80
2021/09/01 11:49:21;;;;;;;11.48;4.43;;;19.80;99.90;;;;;;5071775;28;20021;-81
2021/09/01 11:51:49;;;;;;;7.30;3.70;;;19.80;99.90;;;;;;5059353;28;20393;-83
2021/09/01 11:54:16;;;;;;;10.23;4.15;;;19.70;99.90;;;;;;5072067;28;20048;-83
2021/09/01 11:56:43;;;;;;;8.02;3.75;;;19.80;99.90;;;;;;5072571;28;20047;-83
2021/09/01 11:59:11;;;;;;;14.52;5.00;;;19.90;99.90;;;;;;5071621;28;20027;-82
2021/09/01 12:01:55;;;;;;;11.95;4.25;;;19.90;99.90;;;;;;5071079;28;20052;-83
2021/09/01 12:04:22;;;;;;;9.80;4.95;;;19.90;99.90;;;;;;5069180;28;20482;-82
2021/09/01 12:06:56;;;;;;;10.18;4.00;;;19.80;99.90;;;;;;5067188;28;20020;-83
2021/09/01 12:09:26;;;;;;;12.63;4.97;;;19.80;99.90;;;;;;5051034;28;20384;-83
2021/09/01 12:11:53;;;;;;;6.72;4.60;;;19.90;99.90;;;;;;5059818;28;20039;-83
2021/09/01 12:14:23;;;;;;;8.20;4.35;;;19.90;99.90;;;;;;5067325;28;20039;-83
2021/09/01 12:16:53;;;;;;;10.30;4.20;;;19.90;99.90;;;;;;5066770;28;20017;-81
2021/09/01 12:19:20;;;;;;;10.05;4.93;;;19.90;99.90;;;;;;5054428;28;20056;-76
2021/09/01 12:21:55;;;;;;;8.15;4.22;;;19.90;99.90;;;;;;5069286;28;20096;-85
2021/09/01 12:24:28;;;;;;;7.45;3.75;;;20.00;99.90;;;;;;5069096;28;20036;-77
2021/09/01 12:27:03;;;;;;;11.93;4.38;;;20.00;99.90;;;;;;5072017;28;20166;-82
2021/09/01 12:29:33;;;;;;;11.40;4.55;;;20.10;99.90;;;;;;5070254;28;20134;-80
2021/09/01 12:32:00;;;;;;;8.77;4.20;;;20.20;99.90;;;;;;5070200;28;20032;-75
2021/09/01 12:34:28;;;;;;;16.17;4.93;;;20.30;99.90;;;;;;5071266;28;20012;-83
2021/09/01 12:37:02;;;;;;;11.55;5.05;;;20.20;99.90;;;;;;5068932;28;20434;-83
2021/09/01 12:39:41;;;;;;;7.65;4.30;;;20.40;99.90;;;;;;5055533;28;20029;-84